Time;durP1;ratioP1;P1;durP2;ratioP2;P2;SDS_P1;SDS_P2;PMS_P1;PMS_P2;Temp;Humidity;BMP_temperature;BMP_pressure;BME280_temperature;BME280_humidity;BME280_pressure;Samples;Min_cycle;Max_cycle;Signal;HPM_P1;HPM_P2
2023/05/22 00:02:01;;;;;;;4.10;3.70;;;12.40;99.90;;;;;;8348855;28;20184;-64
2023/05/22 00:06:02;;;;;;;4.67;3.93;;;12.40;99.90;;;;;;8346507;28;20191;-63
2023/05/22 00:10:04;;;;;;;4.00;3.70;;;12.30;99.90;;;;;;8350019;28;20204;-63
2023/05/22 00:14:05;;;;;;;4.27;3.70;;;12.30;99.90;;;;;;8352385;28;20228;-64
2023/05/22 00:18:07;;;;;;;4.63;3.93;;;12.20;99.90;;;;;;8354030;28;20218;-63
2023/05/22 00:22:09;;;;;;;4.73;4.23;;;12.10;1.00;;;;;;8349574;28;20177;-65
2023/05/22 00:26:13;;;;;;;4.73;4.07;;;12.10;1.00;;;;;;8349324;28;20200;-67
2023/05/22 00:30:14;;;;;;;4.77;4.27;;;12.10;1.00;;;;;;8346467;28;20192;-66
2023/05/22 00:34:15;;;;;;;4.20;3.80;;;12.10;1.00;;;;;;8346635;28;20188;-63
2023/05/22 00:38:29;;;;;;;4.33;3.70;;;12.00;1.00;;;;;;8343753;28;20206;-64
2023/05/22 00:42:30;;;;;;;4.50;4.10;;;12.00;1.00;;;;;;8338541;28;20184;-64
2023/05/22 00:46:35;;;;;;;5.00;4.50;;;11.90;10.30;;;;;;8348139;28;20242;-64
2023/05/22 00:50:36;;;;;;;4.67;3.80;;;11.80;99.90;;;;;;8342080;28;20213;-64
2023/05/22 00:54:40;;;;;;;4.93;3.90;;;11.70;99.90;;;;;;8339338;28;20190;-63
2023/05/22 00:58:41;;;;;;;6.40;4.23;;;11.60;99.90;;;;;;8344212;28;20196;-63
2023/05/22 01:02:42;;;;;;;4.30;3.80;;;11.60;99.90;;;;;;8347043;28;20213;-63
2023/05/22 01:06:46;;;;;;;4.43;4.03;;;11.50;99.90;;;;;;8348032;28;20192;-64
2023/05/22 01:10:51;;;;;;;5.10;4.50;;;11.50;99.90;;;;;;8341936;28;20213;-64
2023/05/22 01:15:06;;;;;;;5.10;4.60;;;11.40;99.90;;;;;;8346311;28;20234;-65
2023/05/22 01:19:52;;;;;;;4.57;4.17;;;11.30;99.90;;;;;;8347750;28;20180;-64
2023/05/22 01:24:12;;;;;;;4.63;4.20;;;11.30;99.90;;;;;;8360369;28;20196;-64
2023/05/22 01:28:40;;;;;;;5.80;4.40;;;11.20;1.00;;;;;;8336546;28;20188;-64
2023/05/22 01:32:45;;;;;;;4.37;3.77;;;11.10;1.00;;;;;;8359627;28;20278;-64
2023/05/22 01:36:50;;;;;;;4.93;4.43;;;11.00;1.00;;;;;;8350840;28;20218;-63
2023/05/22 01:40:51;;;;;;;4.80;4.30;;;10.90;1.00;;;;;;8354744;28;20189;-64
2023/05/22 01:44:52;;;;;;;5.00;4.50;;;10.80;4.60;;;;;;8353833;28;20198;-63
2023/05/22 01:48:53;;;;;;;4.67;4.00;;;10.70;99.90;;;;;;8365605;28;20190;-63
2023/05/22 01:52:59;;;;;;;5.43;4.93;;;10.60;99.90;;;;;;8354536;28;20209;-64
2023/05/22 01:57:15;;;;;;;5.00;4.50;;;10.50;99.90;;;;;;8345604;28;20233;-63
2023/05/22 02:01:18;;;;;;;5.17;4.67;;;10.40;99.90;;;;;;8352400;28;20189;-64
2023/05/22 02:05:22;;;;;;;7.30;5.07;;;10.40;1.00;;;;;;8354058;28;20205;-64
2023/05/22 02:09:26;;;;;;;4.93;4.43;;;10.30;99.90;;;;;;8360003;28;20198;-64
2023/05/22 02:13:28;;;;;;;6.47;5.00;;;10.30;99.90;;;;;;8350916;28;20192;-64
2023/05/22 02:17:45;;;;;;;7.10;5.20;;;10.20;99.90;;;;;;8350109;28;20217;-64
2023/05/22 02:21:46;;;;;;;6.20;4.50;;;10.20;99.90;;;;;;8354453;28;20190;-63
2023/05/22 02:25:46;;;;;;;6.63;5.33;;;10.10;99.90;;;;;;8355247;28;20205;-62
2023/05/22 02:29:47;;;;;;;6.10;4.83;;;10.10;39.60;;;;;;8351496;28;20222;-64
2023/05/22 02:33:48;;;;;;;5.17;4.60;;;10.00;99.90;;;;;;8348813;28;20210;-64
2023/05/22 02:37:49;;;;;;;5.07;4.57;;;10.00;99.90;;;;;;8345205;28;20218;-64
2023/05/22 02:41:50;;;;;;;5.60;5.00;;;9.90;99.90;;;;;;8351902;28;20186;-64
2023/05/22 02:45:52;;;;;;;5.60;5.00;;;9.90;1.00;;;;;;8338688;28;20189;-63
2023/05/22 02:49:52;;;;;;;5.57;4.50;;;9.90;99.90;;;;;;8350525;28;20247;-63
2023/05/22 02:53:54;;;;;;;5.07;4.60;;;9.80;99.90;;;;;;8352765;28;20248;-64
2023/05/22 02:57:55;;;;;;;6.10;5.50;;;9.70;99.90;;;;;;8349701;28;20244;-64
2023/05/22 03:01:56;;;;;;;5.43;4.93;;;9.70;1.00;;;;;;8350728;28;20192;-63
2023/05/22 03:05:57;;;;;;;5.03;4.53;;;9.60;1.00;;;;;;8356808;28;20186;-63
2023/05/22 03:09:58;;;;;;;5.50;5.00;;;9.70;1.00;;;;;;8345791;28;20198;-63
2023/05/22 03:13:59;;;;;;;5.97;5.03;;;9.70;99.90;;;;;;8344976;28;20314;-67
2023/05/22 03:18:02;;;;;;;6.03;5.33;;;9.80;93.10;;;;;;8343581;28;20216;-68
2023/05/22 03:22:04;;;;;;;6.40;5.10;;;9.90;1.00;;;;;;8353722;28;20209;-67
2023/05/22 03:26:05;;;;;;;6.20;5.60;;;10.00;99.90;;;;;;8347515;28;20222;-66
2023/05/22 03:30:07;;;;;;;5.60;5.03;;;10.10;99.90;;;;;;8350459;28;20182;-69
2023/05/22 03:34:08;;;;;;;6.53;5.47;;;10.30;99.90;;;;;;8353241;28;20197;-68
2023/05/22 03:38:09;;;;;;;6.87;6.17;;;10.50;99.90;;;;;;8348319;28;20297;-68
2023/05/22 03:42:13;;;;;;;10.20;6.43;;;10.70;1.00;;;;;;8343910;28;20189;-65
2023/05/22 03:46:14;;;;;;;7.07;6.10;;;11.30;1.00;;;;;;8345730;28;20194;-66
2023/05/22 03:50:15;;;;;;;6.33;5.37;;;11.70;99.90;;;;;;8344460;28;20231;-66
2023/05/22 03:54:19;;;;;;;10.27;5.27;;;11.90;99.90;;;;;;8350205;28;20278;-66
2023/05/22 03:58:20;;;;;;;6.20;4.87;;;12.10;1.00;;;;;;8348569;28;20211;-67
2023/05/22 04:02:25;;;;;;;7.53;4.53;;;12.10;1.00;;;;;;8348942;28;20199;-66
2023/05/22 04:06:25;;;;;;;8.87;4.83;;;12.20;99.90;;;;;;8348422;28;20193;-67
2023/05/22 04:10:26;;;;;;;10.83;4.87;;;12.50;99.90;;;;;;8345378;28;20223;-66
2023/05/22 04:14:28;;;;;;;7.37;5.93;;;13.10;99.90;;;;;;8349049;28;20289;-66
2023/05/22 04:18:28;;;;;;;8.60;5.53;;;13.90;1.00;;;;;;8361192;28;20217;-66
2023/05/22 04:22:30;;;;;;;6.67;5.23;;;14.70;99.90;;;;;;8343698;28;20186;-66
2023/05/22 04:26:31;;;;;;;5.10;4.60;;;15.60;99.90;;;;;;8347456;28;20217;-67
2023/05/22 04:30:32;;;;;;;7.53;5.00;;;16.10;99.90;;;;;;8344607;28;20191;-66
2023/05/22 04:34:36;;;;;;;9.50;5.87;;;16.80;99.90;;;;;;8344044;28;20197;-67
2023/05/22 04:38:37;;;;;;;5.17;4.67;;;17.10;99.90;;;;;;8342456;28;20214;-67
2023/05/22 04:42:44;;;;;;;5.73;5.03;;;17.40;99.90;;;;;;8350651;28;20177;-67
2023/05/22 04:46:45;;;;;;;7.33;4.50;;;18.00;99.70;;;;;;8343608;28;20198;-66
2023/05/22 04:50:47;;;;;;;5.60;3.70;;;18.50;67.40;;;;;;8354151;28;20193;-65
2023/05/22 04:54:51;;;;;;;8.73;5.60;;;18.70;38.60;;;;;;8345739;28;20181;-66
2023/05/22 04:58:55;;;;;;;6.40;4.33;;;18.80;24.10;;;;;;8349529;28;20193;-67
2023/05/22 05:02:56;;;;;;;5.10;3.40;;;19.00;10.10;;;;;;8346786;28;20205;-66
2023/05/22 05:06:57;;;;;;;4.80;3.80;;;18.60;16.90;;;;;;8344094;28;20248;-66
2023/05/22 05:10:58;;;;;;;5.33;3.53;;;18.30;24.10;;;;;;8334378;28;20181;-66
2023/05/22 05:14:59;;;;;;;5.50;4.03;;;18.00;25.00;;;;;;8340648;28;20190;-66
2023/05/22 05:19:00;;;;;;;8.50;4.13;;;17.70;31.70;;;;;;8343792;28;20187;-66
2023/05/22 05:23:02;;;;;;;5.40;4.10;;;17.50;52.50;;;;;;8342254;28;20182;-66
2023/05/22 05:27:03;;;;;;;6.13;4.00;;;17.40;50.10;;;;;;8346628;28;20193;-66
2023/05/22 05:31:07;;;;;;;4.70;4.20;;;17.50;47.50;;;;;;8332136;28;20185;-65
2023/05/22 05:35:08;;;;;;;6.00;4.13;;;17.60;43.00;;;;;;8347719;28;20333;-66
2023/05/22 05:39:09;;;;;;;3.97;3.23;;;17.60;43.10;;;;;;8343735;28;20194;-66
2023/05/22 05:43:13;;;;;;;4.60;3.50;;;17.70;34.80;;;;;;8339608;28;20193;-65
2023/05/22 05:47:16;;;;;;;6.60;4.10;;;17.80;29.80;;;;;;8337303;28;20300;-66
2023/05/22 05:51:17;;;;;;;4.87;3.07;;;17.90;23.40;;;;;;8347689;28;20190;-66
2023/05/22 05:55:18;;;;;;;5.13;3.70;;;18.00;20.50;;;;;;8341870;28;20205;-67
2023/05/22 05:59:19;;;;;;;4.10;3.67;;;18.20;17.80;;;;;;8345595;28;20197;-67
2023/05/22 06:03:21;;;;;;;6.00;3.80;;;18.30;9.60;;;;;;8345381;28;20238;-68
2023/05/22 06:07:23;;;;;;;7.50;3.70;;;18.40;6.80;;;;;;8347426;28;20216;-67
2023/05/22 06:11:24;;;;;;;5.93;3.80;;;18.40;4.30;;;;;;8349634;28;20190;-68
2023/05/22 06:15:25;;;;;;;3.90;3.13;;;18.50;2.40;;;;;;8338339;28;20248;-67
2023/05/22 06:19:27;;;;;;;7.07;3.17;;;18.60;1.00;;;;;;8344833;28;20182;-66
2023/05/22 06:23:27;;;;;;;5.43;3.43;;;18.60;1.00;;;;;;8348246;28;20271;-66
2023/05/22 06:27:31;;;;;;;6.40;3.13;;;18.70;1.00;;;;;;8347096;28;20194;-68
2023/05/22 06:31:34;;;;;;;7.70;3.20;;;18.90;1.00;;;;;;8346793;28;20208;-66
2023/05/22 06:35:35;;;;;;;5.37;3.43;;;19.10;1.00;;;;;;8349677;28;20209;-65
2023/05/22 06:39:36;;;;;;;6.57;3.90;;;19.30;1.00;;;;;;8348956;28;20212;-66
2023/05/22 06:43:37;;;;;;;5.97;4.13;;;19.30;1.00;;;;;;8353631;28;20189;-67
2023/05/22 06:47:38;;;;;;;5.03;3.63;;;19.40;1.00;;;;;;8346121;28;20185;-66
2023/05/22 06:51:39;;;;;;;3.63;3.23;;;19.50;1.00;;;;;;8345025;28;20231;-67
2023/05/22 06:55:41;;;;;;;6.03;3.60;;;19.60;1.00;;;;;;8349327;28;20226;-66
2023/05/22 06:59:42;;;;;;;6.93;3.43;;;19.80;1.00;;;;;;8349210;28;20197;-66
2023/05/22 07:03:43;;;;;;;5.73;3.67;;;19.90;1.00;;;;;;8344106;28;20209;-67
2023/05/22 07:07:44;;;;;;;5.97;3.07;;;20.10;1.00;;;;;;8349061;28;20231;-68
2023/05/22 07:11:47;;;;;;;5.00;3.57;;;20.20;1.00;;;;;;8330319;28;20189;-67
2023/05/22 07:15:48;;;;;;;4.67;3.43;;;20.40;1.00;;;;;;8346950;28;20207;-66
2023/05/22 07:19:49;;;;;;;3.83;3.10;;;20.60;1.00;;;;;;8345423;28;20189;-67
2023/05/22 07:23:51;;;;;;;7.50;3.30;;;20.60;1.00;;;;;;8345945;28;20179;-66
2023/05/22 07:27:52;;;;;;;3.70;3.23;;;20.70;1.00;;;;;;8346929;28;20196;-66
2023/05/22 07:31:53;;;;;;;3.83;3.13;;;20.80;1.00;;;;;;8340915;28;20220;-68
2023/05/22 07:35:54;;;;;;;7.47;3.20;;;21.00;1.00;;;;;;8344106;28;20217;-67
2023/05/22 07:39:55;;;;;;;3.83;3.00;;;21.10;1.00;;;;;;8342324;28;20207;-67
2023/05/22 07:43:56;;;;;;;7.37;3.00;;;21.20;1.00;;;;;;8338517;28;20189;-66
2023/05/22 07:47:57;;;;;;;5.43;2.97;;;21.20;1.00;;;;;;8349864;28;20197;-67
2023/05/22 07:52:01;;;;;;;5.53;3.10;;;21.50;1.00;;;;;;8345978;28;20187;-66
2023/05/22 07:56:02;;;;;;;4.90;3.17;;;21.70;1.00;;;;;;8346485;28;20214;-67
2023/05/22 08:00:12;;;;;;;7.57;3.40;;;21.80;1.00;;;;;;8343210;28;20185;-67
2023/05/22 08:04:13;;;;;;;4.27;3.20;;;22.00;1.00;;;;;;8346347;28;20208;-66
2023/05/22 08:08:14;;;;;;;4.37;3.00;;;22.20;1.00;;;;;;8343106;28;20205;-66
2023/05/22 08:12:16;;;;;;;4.43;3.40;;;22.30;1.00;;;;;;8353824;28;20267;-64
2023/05/22 08:16:17;;;;;;;6.03;3.10;;;22.40;1.00;;;;;;8345910;28;20192;-63
2023/05/22 08:20:18;;;;;;;4.37;3.20;;;22.50;1.00;;;;;;8343808;28;20196;-67
2023/05/22 08:24:27;;;;;;;6.23;3.20;;;22.60;1.00;;;;;;8340616;28;20181;-67
2023/05/22 08:28:28;;;;;;;5.57;3.17;;;23.00;1.00;;;;;;8345814;28;20197;-65
2023/05/22 08:32:29;;;;;;;5.43;3.10;;;23.30;1.00;;;;;;8345595;28;20254;-66
2023/05/22 08:36:32;;;;;;;10.57;3.73;;;23.50;1.00;;;;;;8344281;28;20218;-66
2023/05/22 08:40:38;;;;;;;5.17;3.77;;;23.90;1.00;;;;;;8345457;28;20244;-67
2023/05/22 08:44:39;;;;;;;8.13;3.53;;;24.10;1.00;;;;;;8344087;28;20277;-66
2023/05/22 08:48:41;;;;;;;5.97;3.30;;;24.00;1.00;;;;;;8346994;28;20186;-67
2023/05/22 08:52:49;;;;;;;5.40;3.30;;;24.10;1.00;;;;;;8345774;28;20239;-67
2023/05/22 08:56:52;;;;;;;5.40;3.97;;;24.30;1.00;;;;;;8345775;28;20285;-64
2023/05/22 09:00:53;;;;;;;4.90;3.50;;;24.50;1.00;;;;;;8347264;28;20186;-67
2023/05/22 09:04:56;;;;;;;6.20;3.20;;;24.50;1.00;;;;;;8336466;28;20202;-68
2023/05/22 09:09:03;;;;;;;9.80;2.80;;;24.30;1.00;;;;;;8339567;28;20193;-67
2023/05/22 09:13:08;;;;;;;4.03;2.60;;;24.00;1.00;;;;;;8363099;28;20181;-65
2023/05/22 09:17:20;;;;;;;4.80;2.70;;;23.80;1.00;;;;;;8344956;28;20232;-68
2023/05/22 09:21:26;;;;;;;4.20;2.60;;;23.60;1.00;;;;;;8342437;28;20178;-66
2023/05/22 09:25:27;;;;;;;3.70;2.30;;;23.60;1.00;;;;;;8356048;28;20205;-67
2023/05/22 09:29:28;;;;;;;2.40;2.03;;;23.90;1.00;;;;;;8342805;28;20198;-65
2023/05/22 09:33:31;;;;;;;5.47;2.23;;;24.10;1.00;;;;;;8344035;28;20275;-67
2023/05/22 09:37:35;;;;;;;4.20;2.47;;;24.50;1.00;;;;;;8341141;28;20220;-65
2023/05/22 09:41:38;;;;;;;8.00;2.17;;;24.80;1.00;;;;;;8340468;28;20193;-67
2023/05/22 09:45:39;;;;;;;4.03;2.30;;;25.10;1.00;;;;;;8337215;28;20277;-66
2023/05/22 09:49:45;;;;;;;4.85;2.22;;;25.20;1.00;;;;;;8343124;28;20185;-67
2023/05/22 09:53:49;;;;;;;5.67;2.90;;;25.10;1.00;;;;;;8348024;28;20297;-67
2023/05/22 09:57:51;;;;;;;3.53;2.17;;;25.20;1.00;;;;;;8348906;28;20209;-66
2023/05/22 10:01:52;;;;;;;3.53;2.08;;;25.40;1.00;;;;;;8355137;28;20179;-68
2023/05/22 10:05:57;;;;;;;3.80;2.30;;;25.60;1.00;;;;;;8343549;28;20259;-68
2023/05/22 10:10:07;;;;;;;5.45;2.50;;;25.70;1.00;;;;;;8354034;28;20196;-70
2023/05/22 10:14:09;;;;;;;4.50;2.38;;;25.70;1.00;;;;;;8347213;28;20182;-69
2023/05/22 10:18:10;;;;;;;6.05;2.08;;;25.60;1.00;;;;;;8355263;28;20214;-67
2023/05/22 10:22:19;;;;;;;2.83;2.17;;;25.70;1.00;;;;;;8346931;28;20198;-68
2023/05/22 10:26:21;;;;;;;3.35;2.13;;;25.70;1.00;;;;;;8351122;28;20190;-68
2023/05/22 10:30:43;;;;;;;3.97;1.95;;;25.70;1.00;;;;;;8339736;28;20196;-68
2023/05/22 10:35:01;;;;;;;3.10;2.10;;;25.80;1.00;;;;;;8344521;28;20189;-70
2023/05/22 10:39:46;;;;;;;4.18;2.17;;;25.80;1.00;;;;;;8349481;28;20193;-67
2023/05/22 10:43:49;;;;;;;5.45;2.00;;;25.60;1.00;;;;;;8289848;28;20230;-67
2023/05/22 10:48:04;;;;;;;5.72;2.20;;;25.20;1.00;;;;;;8350368;28;20231;-69
2023/05/22 10:52:07;;;;;;;6.28;1.90;;;24.80;1.00;;;;;;8346574;28;20185;-69
2023/05/22 10:56:16;;;;;;;3.67;2.00;;;24.60;1.00;;;;;;8352043;28;20236;-70
2023/05/22 11:00:23;;;;;;;4.65;2.35;;;24.70;1.00;;;;;;8352669;28;20190;-68
2023/05/22 11:04:25;;;;;;;5.15;2.00;;;25.00;1.00;;;;;;8352037;28;20209;-67
2023/05/22 11:08:25;;;;;;;8.27;2.33;;;25.40;1.00;;;;;;8349303;28;20193;-70
2023/05/22 11:12:27;;;;;;;3.20;2.20;;;25.60;1.00;;;;;;8343130;28;20239;-69
2023/05/22 11:16:32;;;;;;;3.22;2.35;;;25.80;1.00;;;;;;8353045;28;20220;-67
2023/05/22 11:20:36;;;;;;;4.53;2.33;;;26.00;1.00;;;;;;8349164;28;20188;-68
2023/05/22 11:24:38;;;;;;;4.30;2.03;;;26.30;1.00;;;;;;8345262;28;20199;-70
2023/05/22 11:28:40;;;;;;;5.15;2.00;;;26.30;1.00;;;;;;8350004;28;20181;-67
2023/05/22 11:32:44;;;;;;;4.10;2.28;;;26.30;1.00;;;;;;8362508;28;20193;-67
2023/05/22 11:36:46;;;;;;;4.07;2.72;;;26.00;1.00;;;;;;8348101;28;20220;-70
2023/05/22 11:40:51;;;;;;;5.03;2.40;;;26.10;1.00;;;;;;8337776;28;20182;-69
2023/05/22 11:44:52;;;;;;;4.82;2.60;;;26.10;1.00;;;;;;8350414;28;20201;-68
2023/05/22 11:48:53;;;;;;;6.68;2.70;;;26.00;1.00;;;;;;8346844;28;20206;-68
2023/05/22 11:52:55;;;;;;;6.05;2.33;;;26.00;1.00;;;;;;8351960;28;20185;-69
2023/05/22 11:56:58;;;;;;;6.65;2.35;;;25.90;1.00;;;;;;8347491;28;20224;-67
2023/05/22 12:01:01;;;;;;;6.40;2.65;;;25.90;1.00;;;;;;8349595;28;20291;-70
2023/05/22 12:05:03;;;;;;;2.70;2.10;;;26.00;1.00;;;;;;8351067;28;20200;-69
2023/05/22 12:09:06;;;;;;;3.63;2.10;;;26.00;1.00;;;;;;8354803;28;20190;-69
2023/05/22 12:13:07;;;;;;;4.35;2.33;;;26.30;1.00;;;;;;8347020;28;20182;-69
2023/05/22 12:17:10;;;;;;;3.90;2.42;;;26.60;1.00;;;;;;8345257;28;20213;-68
2023/05/22 12:21:11;;;;;;;2.67;1.88;;;26.40;1.00;;;;;;8342484;28;20235;-68
2023/05/22 12:25:16;;;;;;;3.35;2.40;;;26.30;1.00;;;;;;8347569;28;20287;-67
2023/05/22 12:29:17;;;;;;;4.82;2.45;;;26.20;1.00;;;;;;8342446;28;20198;-70
2023/05/22 12:33:19;;;;;;;4.00;2.40;;;25.90;1.00;;;;;;8347800;28;20181;-66
2023/05/22 12:37:23;;;;;;;5.53;2.80;;;25.80;1.00;;;;;;8350297;28;20220;-67
2023/05/22 12:41:25;;;;;;;5.90;2.25;;;25.70;1.00;;;;;;8342855;28;20185;-67
2023/05/22 12:45:29;;;;;;;4.53;2.70;;;25.50;1.00;;;;;;8342232;28;20186;-69
2023/05/22 12:49:30;;;;;;;6.40;2.20;;;25.50;1.00;;;;;;8362083;28;20185;-67
2023/05/22 12:53:34;;;;;;;4.68;2.33;;;25.70;1.00;;;;;;8343304;28;20186;-65
2023/05/22 12:57:44;;;;;;;3.08;2.47;;;25.60;1.00;;;;;;8341807;28;20210;-66
2023/05/22 13:01:45;;;;;;;3.15;2.30;;;25.60;1.00;;;;;;8344233;28;20192;-67
2023/05/22 13:05:46;;;;;;;3.38;2.08;;;25.30;1.00;;;;;;8351047;28;20208;-67
2023/05/22 13:09:48;;;;;;;3.10;2.17;;;25.50;1.00;;;;;;8341404;28;20198;-67
2023/05/22 13:13:49;;;;;;;2.67;1.85;;;25.60;1.00;;;;;;8352312;28;20277;-67
2023/05/22 13:17:50;;;;;;;6.35;2.10;;;25.60;1.00;;;;;;8343799;28;20225;-67
2023/05/22 13:21:53;;;;;;;5.50;2.42;;;25.80;1.00;;;;;;8344415;28;20191;-67
2023/05/22 13:25:54;;;;;;;4.57;2.40;;;25.70;1.00;;;;;;8349713;28;20240;-68
2023/05/22 13:29:55;;;;;;;5.38;2.80;;;25.80;1.00;;;;;;8350178;28;20264;-64
2023/05/22 13:33:56;;;;;;;5.68;2.38;;;25.90;1.00;;;;;;8348623;28;20234;-66
2023/05/22 13:37:57;;;;;;;4.25;2.05;;;25.90;1.00;;;;;;8364103;28;20264;-69
2023/05/22 13:41:58;;;;;;;2.58;1.77;;;26.00;1.00;;;;;;8353379;28;20193;-67
2023/05/22 13:45:59;;;;;;;3.53;2.10;;;26.00;1.00;;;;;;8347297;28;20209;-65
2023/05/22 13:50:00;;;;;;;4.55;2.30;;;26.20;1.00;;;;;;8351202;28;20181;-67
2023/05/22 13:54:02;;;;;;;4.60;2.20;;;26.60;1.00;;;;;;8350936;28;20193;-65
2023/05/22 13:58:03;;;;;;;3.67;1.90;;;26.90;1.00;;;;;;8353044;28;20208;-66
2023/05/22 14:02:06;;;;;;;4.10;2.15;;;27.00;1.00;;;;;;8354185;28;20182;-67
2023/05/22 14:06:07;;;;;;;3.40;1.90;;;26.90;1.00;;;;;;8352960;28;20220;-67
2023/05/22 14:10:08;;;;;;;5.57;2.13;;;26.70;1.00;;;;;;8351887;28;20204;-68
2023/05/22 14:14:13;;;;;;;2.63;2.17;;;26.90;1.00;;;;;;8355556;28;20182;-65
2023/05/22 14:18:17;;;;;;;6.30;2.20;;;26.60;1.00;;;;;;8350810;28;20209;-67
2023/05/22 14:22:18;;;;;;;4.80;2.10;;;26.30;1.00;;;;;;8369635;28;20224;-66
2023/05/22 14:26:28;;;;;;;4.32;2.45;;;26.30;1.00;;;;;;8354607;28;20193;-68
2023/05/22 14:30:32;;;;;;;3.08;2.17;;;26.30;1.00;;;;;;8345909;28;20256;-68
2023/05/22 14:34:33;;;;;;;5.18;2.78;;;26.00;1.00;;;;;;8349858;28;20186;-67
2023/05/22 14:38:41;;;;;;;3.53;2.20;;;25.90;1.00;;;;;;8345586;28;20245;-67
2023/05/22 14:42:46;;;;;;;5.82;2.50;;;25.70;1.00;;;;;;8342269;28;20250;-67
2023/05/22 14:46:47;;;;;;;3.72;2.30;;;25.60;1.00;;;;;;8352186;28;20197;-67
2023/05/22 14:50:48;;;;;;;5.90;2.10;;;25.50;1.00;;;;;;8350678;28;20209;-67
2023/05/22 14:54:49;;;;;;;4.57;2.10;;;25.40;1.00;;;;;;8342848;28;20194;-65
2023/05/22 14:58:50;;;;;;;6.15;2.22;;;25.10;1.00;;;;;;8353863;28;20254;-65
2023/05/22 15:02:51;;;;;;;3.33;1.93;;;25.00;1.00;;;;;;8351760;28;20225;-66
2023/05/22 15:06:52;;;;;;;3.67;2.50;;;25.10;1.00;;;;;;8346688;28;20205;-67
2023/05/22 15:10:53;;;;;;;3.03;2.20;;;25.10;1.00;;;;;;8347888;28;20268;-68
2023/05/22 15:14:53;;;;;;;5.07;2.40;;;25.10;1.00;;;;;;8352192;28;20192;-63
2023/05/22 15:18:54;;;;;;;3.93;2.50;;;25.10;1.00;;;;;;8348768;28;20237;-65
2023/05/22 15:23:02;;;;;;;3.87;2.00;;;25.10;1.00;;;;;;8345974;28;20232;-70
2023/05/22 15:27:03;;;;;;;3.93;2.90;;;25.10;1.00;;;;;;8350196;28;20186;-66
2023/05/22 15:31:04;;;;;;;5.53;2.60;;;25.20;1.00;;;;;;8350758;28;20193;-69
2023/05/22 15:35:06;;;;;;;8.27;2.50;;;25.20;1.00;;;;;;8345232;28;20188;-71
2023/05/22 15:39:07;;;;;;;3.10;2.30;;;25.20;1.00;;;;;;8347847;28;20288;-67
2023/05/22 15:43:11;;;;;;;5.07;2.47;;;25.30;1.00;;;;;;8349710;28;20190;-67
2023/05/22 15:47:12;;;;;;;3.30;2.30;;;25.20;1.00;;;;;;8350705;28;20307;-67
2023/05/22 15:51:13;;;;;;;2.55;2.10;;;25.10;1.00;;;;;;8346837;28;20307;-67
2023/05/22 15:55:14;;;;;;;4.00;2.50;;;25.10;1.00;;;;;;8346299;28;20193;-68
2023/05/22 15:59:18;;;;;;;4.13;2.20;;;25.00;1.00;;;;;;8348089;28;20191;-67
2023/05/22 16:03:25;;;;;;;6.07;2.23;;;25.10;1.00;;;;;;8345143;28;20219;-66
2023/05/22 16:07:29;;;;;;;2.33;1.75;;;25.20;1.00;;;;;;8358669;28;20193;-66
2023/05/22 16:11:30;;;;;;;3.22;2.45;;;25.40;1.00;;;;;;8366464;28;20193;-67
2023/05/22 16:15:32;;;;;;;5.93;2.10;;;25.40;1.00;;;;;;8346848;28;20216;-66
2023/05/22 16:19:33;;;;;;;5.45;2.25;;;25.30;1.00;;;;;;8345976;28;20183;-66
2023/05/22 16:23:34;;;;;;;3.37;2.47;;;25.10;1.00;;;;;;8350347;28;20198;-65
2023/05/22 16:27:36;;;;;;;6.43;2.50;;;25.10;1.00;;;;;;8347385;28;20193;-68
2023/05/22 16:31:37;;;;;;;2.90;2.03;;;24.90;1.00;;;;;;8345075;28;20186;-67
2023/05/22 16:35:38;;;;;;;4.70;2.13;;;25.00;1.00;;;;;;8354457;28;20296;-66
2023/05/22 16:39:40;;;;;;;3.57;2.40;;;24.70;1.00;;;;;;8347292;28;20280;-66
2023/05/22 16:43:49;;;;;;;6.10;2.40;;;24.50;1.00;;;;;;8348689;28;20206;-66
2023/05/22 16:47:50;;;;;;;4.30;1.93;;;24.30;1.00;;;;;;8344336;28;20194;-68
2023/05/22 16:51:52;;;;;;;4.63;2.70;;;24.10;1.00;;;;;;8341991;28;20198;-66
2023/05/22 16:55:54;;;;;;;5.33;2.73;;;23.90;1.00;;;;;;8347042;28;20213;-68
2023/05/22 16:59:55;;;;;;;5.50;2.70;;;23.70;1.00;;;;;;8358667;28;20286;-65
2023/05/22 17:03:56;;;;;;;3.73;2.50;;;23.70;1.00;;;;;;8347390;28;20268;-66
2023/05/22 17:07:57;;;;;;;2.97;2.50;;;23.60;1.00;;;;;;8347705;28;20228;-67
2023/05/22 17:11:58;;;;;;;5.63;2.90;;;23.50;1.00;;;;;;8351887;28;20199;-67
2023/05/22 17:15:59;;;;;;;5.47;2.60;;;23.40;1.00;;;;;;8346383;28;20254;-67
2023/05/22 17:20:01;;;;;;;2.57;2.30;;;23.40;1.00;;;;;;8347454;28;20196;-68
2023/05/22 17:24:02;;;;;;;5.10;2.53;;;23.30;1.00;;;;;;8343245;28;20207;-68
2023/05/22 17:28:03;;;;;;;5.10;3.03;;;23.20;1.00;;;;;;8347692;28;20272;-67
2023/05/22 17:32:05;;;;;;;4.33;2.30;;;23.20;1.00;;;;;;8344564;28;20181;-68
2023/05/22 17:36:06;;;;;;;3.13;2.40;;;23.20;1.00;;;;;;8343780;28;20218;-67
2023/05/22 17:40:09;;;;;;;3.17;2.33;;;23.20;1.00;;;;;;8345302;28;20197;-68
2023/05/22 17:44:10;;;;;;;3.00;2.30;;;23.10;1.00;;;;;;8343684;28;20190;-68
2023/05/22 17:48:11;;;;;;;2.77;2.40;;;23.00;1.00;;;;;;8344908;28;20198;-67
2023/05/22 17:52:13;;;;;;;2.63;2.27;;;22.80;1.00;;;;;;8348419;28;20193;-67
2023/05/22 17:56:15;;;;;;;2.40;2.10;;;22.60;1.00;;;;;;8342407;28;20217;-67
2023/05/22 18:00:17;;;;;;;3.77;2.43;;;22.40;1.00;;;;;;8349877;28;20187;-68
2023/05/22 18:04:18;;;;;;;6.07;2.47;;;22.20;1.00;;;;;;8346587;28;20209;-67
2023/05/22 18:08:20;;;;;;;3.57;2.60;;;22.10;1.00;;;;;;8343425;28;20201;-68
2023/05/22 18:12:21;;;;;;;3.97;2.67;;;21.90;1.00;;;;;;8346180;28;20293;-68
2023/05/22 18:16:22;;;;;;;2.83;2.30;;;21.80;1.00;;;;;;8352745;28;20213;-67
2023/05/22 18:20:23;;;;;;;5.47;2.37;;;21.60;1.00;;;;;;8351704;28;20191;-67
2023/05/22 18:24:27;;;;;;;4.57;2.60;;;21.40;1.00;;;;;;8346229;28;20186;-67
2023/05/22 18:28:28;;;;;;;3.13;2.60;;;21.00;1.00;;;;;;8347182;28;20285;-67
2023/05/22 18:32:30;;;;;;;3.47;2.47;;;20.70;1.00;;;;;;8345561;28;20193;-67
2023/05/22 18:36:30;;;;;;;4.17;2.40;;;20.30;1.00;;;;;;8348875;28;20222;-67
2023/05/22 18:40:31;;;;;;;3.77;2.87;;;19.90;1.00;;;;;;8348031;28;20190;-67
2023/05/22 18:44:33;;;;;;;5.27;3.77;;;19.60;1.00;;;;;;8350592;28;20226;-67
2023/05/22 18:48:37;;;;;;;91.00;63.53;;;19.30;1.00;;;;;;8352460;28;20194;-68
2023/05/22 18:52:38;;;;;;;37.80;28.10;;;19.10;1.00;;;;;;8354433;28;20189;-67
2023/05/22 18:56:39;;;;;;;15.87;11.33;;;18.80;1.00;;;;;;8343918;28;20222;-67
2023/05/22 19:00:41;;;;;;;9.83;7.20;;;18.40;1.00;;;;;;8350030;28;20198;-66
2023/05/22 19:04:43;;;;;;;5.10;4.10;;;18.10;1.00;;;;;;8348360;28;20209;-65
2023/05/22 19:08:44;;;;;;;4.10;3.57;;;17.80;1.00;;;;;;8356822;28;20196;-66
2023/05/22 19:12:48;;;;;;;4.53;3.27;;;17.60;1.00;;;;;;8351273;28;20197;-66
2023/05/22 19:16:49;;;;;;;4.27;3.33;;;17.30;8.50;;;;;;8349680;28;20207;-63
2023/05/22 19:20:50;;;;;;;4.53;3.83;;;17.10;33.50;;;;;;8351719;28;20262;-63
2023/05/22 19:24:54;;;;;;;3.63;3.23;;;16.90;58.40;;;;;;8347923;28;20184;-63
2023/05/22 19:28:58;;;;;;;6.10;3.17;;;16.60;91.20;;;;;;8348542;28;20193;-63
2023/05/22 19:32:59;;;;;;;3.93;2.90;;;16.40;99.90;;;;;;8354212;28;20196;-64
2023/05/22 19:37:00;;;;;;;5.17;3.20;;;16.20;99.90;;;;;;8345191;28;20213;-63
2023/05/22 19:41:01;;;;;;;5.60;3.20;;;16.00;99.90;;;;;;8334338;28;20213;-63
2023/05/22 19:45:03;;;;;;;3.83;3.37;;;15.90;99.90;;;;;;8344761;28;20208;-63
2023/05/22 19:49:04;;;;;;;3.73;3.37;;;15.70;99.90;;;;;;8352570;28;20217;-63
2023/05/22 19:53:05;;;;;;;4.67;3.57;;;15.60;99.90;;;;;;8340592;28;20239;-63
2023/05/22 19:57:06;;;;;;;7.43;3.53;;;15.50;99.90;;;;;;8349739;28;20208;-64
2023/05/22 20:01:08;;;;;;;6.10;4.33;;;15.50;99.90;;;;;;8354687;28;20190;-63
2023/05/22 20:05:11;;;;;;;5.33;4.20;;;15.40;99.90;;;;;;8346634;28;20204;-63
2023/05/22 20:09:12;;;;;;;6.87;3.67;;;15.30;99.90;;;;;;8346383;28;20292;-63
2023/05/22 20:13:13;;;;;;;4.13;3.73;;;15.00;99.90;;;;;;8352183;28;20189;-63
2023/05/22 20:17:23;;;;;;;3.57;3.23;;;14.80;99.90;;;;;;8349344;28;20213;-64
2023/05/22 20:21:24;;;;;;;6.23;3.47;;;14.60;99.90;;;;;;8345964;28;20185;-63
2023/05/22 20:25:29;;;;;;;4.00;3.60;;;14.40;99.90;;;;;;8350303;28;20280;-63
2023/05/22 20:29:30;;;;;;;4.27;3.60;;;14.20;99.90;;;;;;8352987;28;20194;-63
2023/05/22 20:33:35;;;;;;;4.63;3.50;;;14.00;99.90;;;;;;8339762;28;20286;-65
2023/05/22 20:37:37;;;;;;;3.57;3.27;;;13.90;99.90;;;;;;8345141;28;20219;-63
2023/05/22 20:41:38;;;;;;;3.87;3.23;;;13.80;99.90;;;;;;8344940;28;20193;-63
2023/05/22 20:45:40;;;;;;;6.73;3.57;;;13.80;99.90;;;;;;8342897;28;20252;-66
2023/05/22 20:49:44;;;;;;;5.07;3.70;;;13.70;99.90;;;;;;8346870;28;20194;-66
2023/05/22 20:53:52;;;;;;;6.33;3.40;;;13.50;99.90;;;;;;8345599;28;20185;-64
2023/05/22 20:58:00;;;;;;;5.33;3.37;;;13.50;99.90;;;;;;8358068;28;20213;-65
2023/05/22 21:02:02;;;;;;;5.43;3.60;;;13.40;99.90;;;;;;8345616;28;20188;-64
2023/05/22 21:06:03;;;;;;;4.57;3.47;;;13.30;99.90;;;;;;8357630;28;20270;-65
2023/05/22 21:10:04;;;;;;;5.07;3.27;;;13.20;99.90;;;;;;8344764;28;20201;-65
2023/05/22 21:14:05;;;;;;;4.70;3.33;;;13.00;99.90;;;;;;8345913;28;20264;-62